sensor_id;sensor_type;location;lat;lon;timestamp;pressure;altitude;pressure_sealevel;temperature;humidity
75759;BME280;64371;47.566;19.086;2022-12-04T00:00:14;101208.81;;;2.75;86.06
75759;BME280;64371;47.566;19.086;2022-12-04T00:03:17;101210.44;;;2.69;86.91
75759;BME280;64371;47.566;19.086;2022-12-04T00:06:20;101207.84;;;2.69;87.06
75759;BME280;64371;47.566;19.086;2022-12-04T00:09:22;101205.06;;;2.71;87.62
75759;BME280;64371;47.566;19.086;2022-12-04T00:12:25;101201.22;;;2.74;87.35
75759;BME280;64371;47.566;19.086;2022-12-04T00:15:27;101208.41;;;2.78;87.22
75759;BME280;64371;47.566;19.086;2022-12-04T00:18:29;101208.78;;;2.82;87.16
75759;BME280;64371;47.566;19.086;2022-12-04T00:21:32;101202.38;;;2.84;87.24
75759;BME280;64371;47.566;19.086;2022-12-04T00:24:34;101211.75;;;2.92;86.73
75759;BME280;64371;47.566;19.086;2022-12-04T00:27:36;101219.56;;;2.92;86.50
75759;BME280;64371;47.566;19.086;2022-12-04T00:30:40;101211.16;;;2.90;86.71
75759;BME280;64371;47.566;19.086;2022-12-04T00:33:43;101210.97;;;2.91;86.97
75759;BME280;64371;47.566;19.086;2022-12-04T00:36:45;101215.34;;;2.91;86.89
75759;BME280;64371;47.566;19.086;2022-12-04T00:39:48;101226.22;;;2.88;86.85
75759;BME280;64371;47.566;19.086;2022-12-04T00:42:50;101225.19;;;2.95;86.94
75759;BME280;64371;47.566;19.086;2022-12-04T00:45:52;101219.34;;;3.00;87.19
75759;BME280;64371;47.566;19.086;2022-12-04T00:48:55;101217.53;;;3.00;86.43
75759;BME280;64371;47.566;19.086;2022-12-04T00:51:57;101207.13;;;2.94;86.85
75759;BME280;64371;47.566;19.086;2022-12-04T00:54:59;101212.56;;;2.92;87.01
75759;BME280;64371;47.566;19.086;2022-12-04T00:58:02;101209.16;;;2.92;86.89
75759;BME280;64371;47.566;19.086;2022-12-04T01:01:07;101206.56;;;2.92;86.69
75759;BME280;64371;47.566;19.086;2022-12-04T01:04:10;101204.75;;;2.92;86.67
75759;BME280;64371;47.566;19.086;2022-12-04T01:07:12;101209.97;;;2.92;86.94
75759;BME280;64371;47.566;19.086;2022-12-04T01:10:15;101208.56;;;2.90;86.79
75759;BME280;64371;47.566;19.086;2022-12-04T01:13:17;101209.19;;;2.85;86.58
75759;BME280;64371;47.566;19.086;2022-12-04T01:16:25;101210.16;;;2.91;87.17
75759;BME280;64371;47.566;19.086;2022-12-04T01:19:28;101207.53;;;2.91;87.21
75759;BME280;64371;47.566;19.086;2022-12-04T01:22:31;101207.31;;;2.99;87.14
75759;BME280;64371;47.566;19.086;2022-12-04T01:25:33;101211.31;;;3.01;86.74
75759;BME280;64371;47.566;19.086;2022-12-04T01:28:36;101206.88;;;3.08;86.84
75759;BME280;64371;47.566;19.086;2022-12-04T01:31:38;101214.84;;;3.13;87.05
75759;BME280;64371;47.566;19.086;2022-12-04T01:34:40;101208.03;;;3.50;85.93
75759;BME280;64371;47.566;19.086;2022-12-04T01:37:43;101210.34;;;3.89;84.19
75759;BME280;64371;47.566;19.086;2022-12-04T01:40:45;101209.50;;;4.14;82.71
75759;BME280;64371;47.566;19.086;2022-12-04T01:47:22;101216.19;;;4.28;81.81
75759;BME280;64371;47.566;19.086;2022-12-04T01:50:24;101220.25;;;4.24;81.90
75759;BME280;64371;47.566;19.086;2022-12-04T01:53:28;101210.09;;;4.34;81.40
75759;BME280;64371;47.566;19.086;2022-12-04T01:56:52;101220.53;;;4.34;81.67
75759;BME280;64371;47.566;19.086;2022-12-04T02:00:03;101220.13;;;4.37;81.52
75759;BME280;64371;47.566;19.086;2022-12-04T02:03:06;101195.97;;;4.41;81.08
75759;BME280;64371;47.566;19.086;2022-12-04T02:06:08;101201.13;;;4.48;80.86
75759;BME280;64371;47.566;19.086;2022-12-04T02:09:11;101197.78;;;4.41;80.97
75759;BME280;64371;47.566;19.086;2022-12-04T02:16:02;101198.13;;;4.08;82.17
75759;BME280;64371;47.566;19.086;2022-12-04T02:29:49;101203.41;;;3.77;83.74
75759;BME280;64371;47.566;19.086;2022-12-04T02:33:22;101203.63;;;3.75;83.36
75759;BME280;64371;47.566;19.086;2022-12-04T02:36:30;101198.25;;;3.70;83.98
75759;BME280;64371;47.566;19.086;2022-12-04T02:42:57;101191.75;;;3.55;84.70
75759;BME280;64371;47.566;19.086;2022-12-04T02:49:20;101205.88;;;3.41;84.83
75759;BME280;64371;47.566;19.086;2022-12-04T02:52:32;101196.34;;;3.28;85.06
75759;BME280;64371;47.566;19.086;2022-12-04T02:55:45;101200.03;;;3.14;86.39
75759;BME280;64371;47.566;19.086;2022-12-04T02:58:53;101199.97;;;3.20;86.14
75759;BME280;64371;47.566;19.086;2022-12-04T03:02:03;101200.25;;;3.12;85.96
75759;BME280;64371;47.566;19.086;2022-12-04T03:05:12;101200.22;;;3.19;86.28
75759;BME280;64371;47.566;19.086;2022-12-04T03:08:20;101191.38;;;3.20;86.19
75759;BME280;64371;47.566;19.086;2022-12-04T03:11:27;101184.00;;;3.17;86.28
75759;BME280;64371;47.566;19.086;2022-12-04T03:14:41;101193.06;;;3.01;86.13
75759;BME280;64371;47.566;19.086;2022-12-04T03:17:51;101197.75;;;2.86;86.88
75759;BME280;64371;47.566;19.086;2022-12-04T03:21:01;101190.78;;;2.80;87.09
75759;BME280;64371;47.566;19.086;2022-12-04T03:24:15;101186.59;;;2.73;87.60
75759;BME280;64371;47.566;19.086;2022-12-04T03:27:50;101180.44;;;2.60;87.48
75759;BME280;64371;47.566;19.086;2022-12-04T03:30:58;101192.09;;;2.51;88.63
75759;BME280;64371;47.566;19.086;2022-12-04T03:34:06;101188.50;;;2.46;89.56
75759;BME280;64371;47.566;19.086;2022-12-04T03:37:13;101182.72;;;2.44;88.97
75759;BME280;64371;47.566;19.086;2022-12-04T03:40:19;101190.13;;;2.47;89.20
75759;BME280;64371;47.566;19.086;2022-12-04T03:43:27;101187.91;;;2.44;89.24
75759;BME280;64371;47.566;19.086;2022-12-04T03:46:54;101185.31;;;2.44;89.35
75759;BME280;64371;47.566;19.086;2022-12-04T03:50:06;101188.91;;;2.49;89.62
75759;BME280;64371;47.566;19.086;2022-12-04T03:53:17;101175.50;;;2.46;88.54
75759;BME280;64371;47.566;19.086;2022-12-04T03:56:26;101193.88;;;2.57;88.74
75759;BME280;64371;47.566;19.086;2022-12-04T03:59:40;101203.84;;;2.67;88.08
75759;BME280;64371;47.566;19.086;2022-12-04T04:02:51;101193.78;;;2.77;87.70
75759;BME280;64371;47.566;19.086;2022-12-04T04:06:03;101196.72;;;3.00;86.57
75759;BME280;64371;47.566;19.086;2022-12-04T04:09:16;101196.91;;;2.99;86.21
75759;BME280;64371;47.566;19.086;2022-12-04T04:12:22;101200.47;;;3.04;86.60
75759;BME280;64371;47.566;19.086;2022-12-04T04:15:26;101198.06;;;3.09;86.01
75759;BME280;64371;47.566;19.086;2022-12-04T04:18:48;101197.69;;;2.99;86.65
75759;BME280;64371;47.566;19.086;2022-12-04T04:22:10;101201.28;;;3.05;87.05
75759;BME280;64371;47.566;19.086;2022-12-04T04:25:31;101202.69;;;3.07;86.28
75759;BME280;64371;47.566;19.086;2022-12-04T04:28:39;101201.53;;;2.97;86.82
75759;BME280;64371;47.566;19.086;2022-12-04T04:31:44;101199.72;;;2.97;87.14
75759;BME280;64371;47.566;19.086;2022-12-04T04:38:17;101198.91;;;2.97;87.30
75759;BME280;64371;47.566;19.086;2022-12-04T04:41:48;101210.31;;;2.96;87.50
75759;BME280;64371;47.566;19.086;2022-12-04T04:45:02;101201.31;;;2.98;87.58
75759;BME280;64371;47.566;19.086;2022-12-04T04:48:19;101204.31;;;3.02;87.72
75759;BME280;64371;47.566;19.086;2022-12-04T04:51:23;101196.91;;;2.99;87.56
75759;BME280;64371;47.566;19.086;2022-12-04T04:54:28;101189.09;;;2.99;87.62
75759;BME280;64371;47.566;19.086;2022-12-04T04:57:34;101198.25;;;3.08;87.42
75759;BME280;64371;47.566;19.086;2022-12-04T05:00:38;101199.06;;;3.08;87.27
75759;BME280;64371;47.566;19.086;2022-12-04T05:03:40;101203.25;;;3.09;86.98
75759;BME280;64371;47.566;19.086;2022-12-04T05:06:43;101196.25;;;3.10;87.07
75759;BME280;64371;47.566;19.086;2022-12-04T05:09:45;101191.25;;;3.08;87.09
75759;BME280;64371;47.566;19.086;2022-12-04T05:12:48;101196.78;;;3.18;87.29
75759;BME280;64371;47.566;19.086;2022-12-04T05:15:58;101180.59;;;3.16;86.59
75759;BME280;64371;47.566;19.086;2022-12-04T05:19:01;101199.34;;;3.31;86.46
75759;BME280;64371;47.566;19.086;2022-12-04T05:22:33;101198.88;;;3.34;86.16
75759;BME280;64371;47.566;19.086;2022-12-04T05:25:35;101186.31;;;3.31;86.16
75759;BME280;64371;47.566;19.086;2022-12-04T05:28:38;101195.28;;;3.35;86.50
75759;BME280;64371;47.566;19.086;2022-12-04T05:31:43;101192.09;;;3.33;86.29
75759;BME280;64371;47.566;19.086;2022-12-04T05:34:52;101194.31;;;3.30;86.23
75759;BME280;64371;47.566;19.086;2022-12-04T05:37:55;101187.13;;;3.25;86.38
75759;BME280;64371;47.566;19.086;2022-12-04T05:40:58;101196.91;;;3.30;86.73
75759;BME280;64371;47.566;19.086;2022-12-04T05:44:01;101189.31;;;3.28;86.55
75759;BME280;64371;47.566;19.086;2022-12-04T05:47:04;101188.97;;;3.18;86.71
75759;BME280;64371;47.566;19.086;2022-12-04T05:50:08;101187.81;;;3.08;87.07
75759;BME280;64371;47.566;19.086;2022-12-04T05:53:11;101192.91;;;2.96;87.43
75759;BME280;64371;47.566;19.086;2022-12-04T05:56:13;101186.75;;;2.84;87.69
75759;BME280;64371;47.566;19.086;2022-12-04T05:59:16;101190.78;;;2.80;88.06
75759;BME280;64371;47.566;19.086;2022-12-04T06:02:19;101199.22;;;2.76;88.27
75759;BME280;64371;47.566;19.086;2022-12-04T06:05:21;101199.03;;;2.71;88.49
75759;BME280;64371;47.566;19.086;2022-12-04T06:08:23;101202.63;;;2.69;88.82
75759;BME280;64371;47.566;19.086;2022-12-04T06:11:29;101204.63;;;2.74;89.17
75759;BME280;64371;47.566;19.086;2022-12-04T06:14:31;101208.41;;;2.78;88.60
75759;BME280;64371;47.566;19.086;2022-12-04T06:17:40;101216.59;;;2.82;88.32
75759;BME280;64371;47.566;19.086;2022-12-04T06:20:42;101205.81;;;2.72;87.11
75759;BME280;64371;47.566;19.086;2022-12-04T06:23:44;101217.69;;;2.61;87.49
75759;BME280;64371;47.566;19.086;2022-12-04T06:26:47;101209.72;;;2.49;87.90
75759;BME280;64371;47.566;19.086;2022-12-04T06:30:10;101205.53;;;2.42;88.26
75759;BME280;64371;47.566;19.086;2022-12-04T06:33:12;101215.16;;;2.41;88.09
75759;BME280;64371;47.566;19.086;2022-12-04T06:36:18;101206.72;;;2.46;87.42
75759;BME280;64371;47.566;19.086;2022-12-04T06:39:20;101221.28;;;2.60;87.83
75759;BME280;64371;47.566;19.086;2022-12-04T06:42:22;101216.84;;;2.67;87.34
75759;BME280;64371;47.566;19.086;2022-12-04T06:45:25;101211.03;;;2.78;88.06
75759;BME280;64371;47.566;19.086;2022-12-04T06:48:27;101209.19;;;2.85;88.04
75759;BME280;64371;47.566;19.086;2022-12-04T06:51:35;101215.34;;;2.97;87.32
75759;BME280;64371;47.566;19.086;2022-12-04T06:54:37;101209.50;;;3.02;86.87
75759;BME280;64371;47.566;19.086;2022-12-04T06:57:40;101208.28;;;3.04;86.88
75759;BME280;64371;47.566;19.086;2022-12-04T07:00:42;101198.06;;;3.09;86.93
75759;BME280;64371;47.566;19.086;2022-12-04T07:03:45;101208.66;;;3.14;86.27
75759;BME280;64371;47.566;19.086;2022-12-04T07:06:52;101200.41;;;3.17;85.78
75759;BME280;64371;47.566;19.086;2022-12-04T07:09:55;101207.63;;;3.22;85.58
75759;BME280;64371;47.566;19.086;2022-12-04T07:12:58;101202.94;;;3.30;85.27
75759;BME280;64371;47.566;19.086;2022-12-04T07:16:02;101210.22;;;3.53;84.85
75759;BME280;64371;47.566;19.086;2022-12-04T07:19:05;101218.56;;;3.86;83.52
75759;BME280;64371;47.566;19.086;2022-12-04T07:22:07;101216.63;;;4.25;82.48
75759;BME280;64371;47.566;19.086;2022-12-04T07:25:10;101222.59;;;4.50;82.03
75759;BME280;64371;47.566;19.086;2022-12-04T07:28:12;101224.03;;;4.64;81.10
75759;BME280;64371;47.566;19.086;2022-12-04T07:31:18;101220.78;;;4.87;80.52
75759;BME280;64371;47.566;19.086;2022-12-04T07:34:21;101212.41;;;5.26;79.00
75759;BME280;64371;47.566;19.086;2022-12-04T07:37:23;101223.53;;;5.74;77.43
75759;BME280;64371;47.566;19.086;2022-12-04T07:40:26;101214.28;;;6.13;76.33
75759;BME280;64371;47.566;19.086;2022-12-04T07:43:29;101219.06;;;6.39;74.01
75759;BME280;64371;47.566;19.086;2022-12-04T07:46:31;101211.03;;;6.57;72.65
75759;BME280;64371;47.566;19.086;2022-12-04T07:49:34;101211.50;;;6.94;72.37
75759;BME280;64371;47.566;19.086;2022-12-04T07:52:38;101220.16;;;7.23;71.94
75759;BME280;64371;47.566;19.086;2022-12-04T07:55:41;101222.63;;;7.58;70.43
75759;BME280;64371;47.566;19.086;2022-12-04T07:58:43;101222.78;;;7.84;69.33
75759;BME280;64371;47.566;19.086;2022-12-04T08:01:46;101217.25;;;8.19;67.72
75759;BME280;64371;47.566;19.086;2022-12-04T08:04:49;101222.56;;;8.41;65.92
75759;BME280;64371;47.566;19.086;2022-12-04T08:07:51;101221.84;;;8.45;65.66
75759;BME280;64371;47.566;19.086;2022-12-04T08:10:54;101214.47;;;8.42;65.58
75759;BME280;64371;47.566;19.086;2022-12-04T08:13:59;101208.53;;;8.30;65.12
75759;BME280;64371;47.566;19.086;2022-12-04T08:17:04;101207.25;;;7.66;67.27
75759;BME280;64371;47.566;19.086;2022-12-04T08:20:07;101219.16;;;7.24;68.29
75759;BME280;64371;47.566;19.086;2022-12-04T08:23:09;101222.66;;;7.01;69.88
75759;BME280;64371;47.566;19.086;2022-12-04T08:26:12;101228.41;;;6.87;70.26
75759;BME280;64371;47.566;19.086;2022-12-04T08:29:14;101214.44;;;7.09;70.28
75759;BME280;64371;47.566;19.086;2022-12-04T08:32:17;101198.53;;;7.16;70.08
75759;BME280;64371;47.566;19.086;2022-12-04T08:35:19;101196.91;;;7.26;69.43
75759;BME280;64371;47.566;19.086;2022-12-04T08:38:21;101200.03;;;7.57;68.38
75759;BME280;64371;47.566;19.086;2022-12-04T08:41:24;101203.44;;;7.90;67.08
75759;BME280;64371;47.566;19.086;2022-12-04T08:44:27;101204.88;;;7.98;66.64
75759;BME280;64371;47.566;19.086;2022-12-04T08:47:29;101215.69;;;8.18;66.56
75759;BME280;64371;47.566;19.086;2022-12-04T08:50:32;101209.22;;;8.26;65.59
75759;BME280;64371;47.566;19.086;2022-12-04T08:53:34;101217.59;;;8.06;66.43
75759;BME280;64371;47.566;19.086;2022-12-04T08:56:40;101220.16;;;8.01;66.45
75759;BME280;64371;47.566;19.086;2022-12-04T08:59:42;101216.66;;;7.95;66.14
75759;BME280;64371;47.566;19.086;2022-12-04T09:02:48;101217.63;;;7.89;66.80
75759;BME280;64371;47.566;19.086;2022-12-04T09:05:52;101210.84;;;7.77;66.56
75759;BME280;64371;47.566;19.086;2022-12-04T09:08:59;101221.44;;;7.82;67.45
75759;BME280;64371;47.566;19.086;2022-12-04T09:12:02;101214.34;;;7.82;67.35
75759;BME280;64371;47.566;19.086;2022-12-04T09:15:05;101205.44;;;7.83;67.08
75759;BME280;64371;47.566;19.086;2022-12-04T09:18:09;101207.66;;;7.91;67.47
75759;BME280;64371;47.566;19.086;2022-12-04T09:21:13;101208.13;;;8.05;66.77
75759;BME280;64371;47.566;19.086;2022-12-04T09:24:15;101206.53;;;8.21;66.06
75759;BME280;64371;47.566;19.086;2022-12-04T09:27:18;101202.38;;;8.25;65.41
75759;BME280;64371;47.566;19.086;2022-12-04T09:30:20;101212.72;;;8.31;65.45
75759;BME280;64371;47.566;19.086;2022-12-04T09:33:23;101202.72;;;8.28;65.41
75759;BME280;64371;47.566;19.086;2022-12-04T09:36:25;101190.00;;;8.42;64.89
75759;BME280;64371;47.566;19.086;2022-12-04T09:39:27;101186.34;;;8.43;64.73
75759;BME280;64371;47.566;19.086;2022-12-04T09:42:46;101189.69;;;8.38;64.93
75759;BME280;64371;47.566;19.086;2022-12-04T09:45:54;101176.94;;;8.47;64.67
75759;BME280;64371;47.566;19.086;2022-12-04T09:49:02;101174.66;;;8.55;64.39
75759;BME280;64371;47.566;19.086;2022-12-04T09:52:46;101169.25;;;8.62;63.42
75759;BME280;64371;47.566;19.086;2022-12-04T09:55:49;101165.38;;;8.91;62.89
75759;BME280;64371;47.566;19.086;2022-12-04T09:58:58;101158.06;;;9.25;62.01
75759;BME280;64371;47.566;19.086;2022-12-04T10:05:41;101154.78;;;9.81;59.38
75759;BME280;64371;47.566;19.086;2022-12-04T10:08:50;101154.63;;;9.98;58.33
75759;BME280;64371;47.566;19.086;2022-12-04T10:12:25;101152.22;;;10.38;57.50
75759;BME280;64371;47.566;19.086;2022-12-04T10:15:42;101137.25;;;10.54;57.02
75759;BME280;64371;47.566;19.086;2022-12-04T10:19:05;101137.88;;;10.86;56.20
75759;BME280;64371;47.566;19.086;2022-12-04T10:25:22;101119.41;;;10.86;54.90
75759;BME280;64371;47.566;19.086;2022-12-04T10:31:29;101127.34;;;10.91;54.99
75759;BME280;64371;47.566;19.086;2022-12-04T10:34:35;101117.84;;;10.95;55.62
75759;BME280;64371;47.566;19.086;2022-12-04T10:37:46;101116.00;;;11.06;54.82
75759;BME280;64371;47.566;19.086;2022-12-04T10:40:54;101112.84;;;11.14;54.75
75759;BME280;64371;47.566;19.086;2022-12-04T10:43:57;101106.00;;;11.38;53.97
75759;BME280;64371;47.566;19.086;2022-12-04T10:47:02;101113.34;;;11.41;53.33
75759;BME280;64371;47.566;19.086;2022-12-04T10:50:14;101106.22;;;11.52;53.47
75759;BME280;64371;47.566;19.086;2022-12-04T10:53:19;101100.66;;;11.73;52.82
75759;BME280;64371;47.566;19.086;2022-12-04T10:56:28;101090.09;;;11.63;52.44
75759;BME280;64371;47.566;19.086;2022-12-04T10:59:30;101086.16;;;11.71;52.28
75759;BME280;64371;47.566;19.086;2022-12-04T11:02:33;101072.44;;;11.39;52.42
75759;BME280;64371;47.566;19.086;2022-12-04T11:05:43;101065.59;;;11.32;52.72
75759;BME280;64371;47.566;19.086;2022-12-04T11:08:49;101072.47;;;11.03;54.08
75759;BME280;64371;47.566;19.086;2022-12-04T11:12:04;101069.56;;;10.80;55.02
75759;BME280;64371;47.566;19.086;2022-12-04T11:18:30;101061.66;;;10.80;55.39
75759;BME280;64371;47.566;19.086;2022-12-04T11:21:33;101046.81;;;10.38;54.84
75759;BME280;64371;47.566;19.086;2022-12-04T11:24:37;101040.19;;;10.31;56.68
75759;BME280;64371;47.566;19.086;2022-12-04T11:27:45;101037.50;;;10.16;56.83
75759;BME280;64371;47.566;19.086;2022-12-04T11:30:50;101035.34;;;10.02;56.79
75759;BME280;64371;47.566;19.086;2022-12-04T11:34:01;101033.16;;;9.84;58.04
75759;BME280;64371;47.566;19.086;2022-12-04T11:37:04;101034.97;;;9.79;57.75
75759;BME280;64371;47.566;19.086;2022-12-04T11:40:16;101025.72;;;9.71;57.47
75759;BME280;64371;47.566;19.086;2022-12-04T11:43:19;101036.69;;;9.53;58.68
75759;BME280;64371;47.566;19.086;2022-12-04T11:46:24;101027.69;;;9.44;59.31
75759;BME280;64371;47.566;19.086;2022-12-04T11:49:28;101017.13;;;9.39;59.29
75759;BME280;64371;47.566;19.086;2022-12-04T11:52:48;101007.88;;;9.31;59.31
75759;BME280;64371;47.566;19.086;2022-12-04T12:06:36;100998.91;;;9.32;59.80
75759;BME280;64371;47.566;19.086;2022-12-04T12:09:42;100995.72;;;9.25;59.89
75759;BME280;64371;47.566;19.086;2022-12-04T12:35:36;101003.81;;;9.14;60.83
75759;BME280;64371;47.566;19.086;2022-12-04T12:38:50;100993.00;;;9.10;61.22
75759;BME280;64371;47.566;19.086;2022-12-04T12:41:58;101002.72;;;9.10;61.36
75759;BME280;64371;47.566;19.086;2022-12-04T12:45:15;101003.25;;;9.12;61.03
75759;BME280;64371;47.566;19.086;2022-12-04T12:48:29;101003.03;;;9.18;61.46
75759;BME280;64371;47.566;19.086;2022-12-04T12:51:44;101002.72;;;9.10;61.51
75759;BME280;64371;47.566;19.086;2022-12-04T12:54:52;101002.69;;;9.05;61.95
75759;BME280;64371;47.566;19.086;2022-12-04T12:58:05;100997.97;;;9.07;61.52
75759;BME280;64371;47.566;19.086;2022-12-04T13:04:39;100991.41;;;9.09;61.85
75759;BME280;64371;47.566;19.086;2022-12-04T13:07:48;100986.72;;;9.16;61.67
75759;BME280;64371;47.566;19.086;2022-12-04T13:11:03;100978.59;;;9.23;61.85
75759;BME280;64371;47.566;19.086;2022-12-04T13:14:11;100985.19;;;9.25;61.06
75759;BME280;64371;47.566;19.086;2022-12-04T13:20:30;100982.56;;;9.25;61.13
75759;BME280;64371;47.566;19.086;2022-12-04T13:24:07;100973.38;;;9.28;61.17
75759;BME280;64371;47.566;19.086;2022-12-04T13:31:13;100992.22;;;9.10;61.79
75759;BME280;64371;47.566;19.086;2022-12-04T13:41:20;101001.19;;;8.82;62.42
75759;BME280;64371;47.566;19.086;2022-12-04T13:44:24;101000.41;;;8.82;62.46
75759;BME280;64371;47.566;19.086;2022-12-04T13:47:30;101000.06;;;8.73;62.88
75759;BME280;64371;47.566;19.086;2022-12-04T13:50:35;101002.47;;;8.80;63.23
75759;BME280;64371;47.566;19.086;2022-12-04T13:53:38;100995.91;;;8.77;63.10
75759;BME280;64371;47.566;19.086;2022-12-04T13:56:48;100996.06;;;8.65;63.46
75759;BME280;64371;47.566;19.086;2022-12-04T14:00:02;101002.88;;;8.61;63.78
75759;BME280;64371;47.566;19.086;2022-12-04T14:03:20;101005.72;;;8.60;63.91
75759;BME280;64371;47.566;19.086;2022-12-04T14:06:41;101002.22;;;8.49;63.85
75759;BME280;64371;47.566;19.086;2022-12-04T14:09:48;101006.19;;;8.52;63.98
75759;BME280;64371;47.566;19.086;2022-12-04T14:13:00;101012.63;;;8.39;64.39
75759;BME280;64371;47.566;19.086;2022-12-04T14:16:15;101018.16;;;8.38;65.07
75759;BME280;64371;47.566;19.086;2022-12-04T14:19:32;101020.47;;;8.34;65.33
75759;BME280;64371;47.566;19.086;2022-12-04T14:25:38;101007.53;;;8.28;65.77
75759;BME280;64371;47.566;19.086;2022-12-04T14:28:41;101012.84;;;8.33;65.55
75759;BME280;64371;47.566;19.086;2022-12-04T14:31:44;101018.38;;;8.36;65.59
75759;BME280;64371;47.566;19.086;2022-12-04T14:34:48;101017.53;;;8.31;66.05
75759;BME280;64371;47.566;19.086;2022-12-04T14:37:55;101020.00;;;8.16;66.78
75759;BME280;64371;47.566;19.086;2022-12-04T14:40:58;101014.72;;;8.16;67.08
75759;BME280;64371;47.566;19.086;2022-12-04T14:44:03;101017.66;;;8.19;66.78
75759;BME280;64371;47.566;19.086;2022-12-04T14:50:46;101007.09;;;8.14;67.33
75759;BME280;64371;47.566;19.086;2022-12-04T14:57:27;101022.31;;;7.90;68.95
75759;BME280;64371;47.566;19.086;2022-12-04T15:00:33;101025.31;;;7.77;69.19
75759;BME280;64371;47.566;19.086;2022-12-04T15:03:42;101025.00;;;7.74;69.24
75759;BME280;64371;47.566;19.086;2022-12-04T15:06:48;101030.91;;;7.64;69.87
75759;BME280;64371;47.566;19.086;2022-12-04T15:10:10;101031.59;;;7.76;69.55
75759;BME280;64371;47.566;19.086;2022-12-04T15:13:37;101036.97;;;7.86;69.48
75759;BME280;64371;47.566;19.086;2022-12-04T15:16:40;101034.28;;;7.81;69.70
75759;BME280;64371;47.566;19.086;2022-12-04T15:19:43;101036.84;;;7.76;70.22
75759;BME280;64371;47.566;19.086;2022-12-04T15:22:46;101028.16;;;7.76;69.97
75759;BME280;64371;47.566;19.086;2022-12-04T15:25:53;101031.34;;;7.78;70.21
75759;BME280;64371;47.566;19.086;2022-12-04T15:28:59;101031.09;;;7.79;70.54
75759;BME280;64371;47.566;19.086;2022-12-04T15:32:07;101030.16;;;7.69;70.99
75759;BME280;64371;47.566;19.086;2022-12-04T15:35:19;101030.56;;;7.61;71.08
75759;BME280;64371;47.566;19.086;2022-12-04T15:38:23;101035.00;;;7.55;72.17
75759;BME280;64371;47.566;19.086;2022-12-04T15:41:34;101042.22;;;7.48;72.38
75759;BME280;64371;47.566;19.086;2022-12-04T15:44:37;101041.72;;;7.51;72.06
75759;BME280;64371;47.566;19.086;2022-12-04T15:50:42;101037.50;;;7.67;71.72
75759;BME280;64371;47.566;19.086;2022-12-04T15:53:45;101033.72;;;7.58;71.66
75759;BME280;64371;47.566;19.086;2022-12-04T15:56:59;101044.59;;;7.50;72.35
75759;BME280;64371;47.566;19.086;2022-12-04T16:00:06;101041.19;;;7.49;72.62
75759;BME280;64371;47.566;19.086;2022-12-04T16:03:29;101045.94;;;7.52;72.56
75759;BME280;64371;47.566;19.086;2022-12-04T16:06:32;101035.75;;;7.56;71.96
75759;BME280;64371;47.566;19.086;2022-12-04T16:09:36;101038.00;;;7.47;73.04
75759;BME280;64371;47.566;19.086;2022-12-04T16:12:38;101037.34;;;7.57;72.09
75759;BME280;64371;47.566;19.086;2022-12-04T16:15:41;101042.78;;;7.50;72.64
75759;BME280;64371;47.566;19.086;2022-12-04T16:18:45;101040.00;;;7.40;73.21
75759;BME280;64371;47.566;19.086;2022-12-04T16:21:47;101028.56;;;7.29;73.02
75759;BME280;64371;47.566;19.086;2022-12-04T16:24:50;101037.78;;;7.32;73.31
75759;BME280;64371;47.566;19.086;2022-12-04T16:27:52;101036.75;;;7.33;73.17
75759;BME280;64371;47.566;19.086;2022-12-04T16:30:54;101035.97;;;7.32;73.48
75759;BME280;64371;47.566;19.086;2022-12-04T16:33:57;101040.03;;;7.23;73.79
75759;BME280;64371;47.566;19.086;2022-12-04T16:36:59;101039.16;;;7.18;74.44
75759;BME280;64371;47.566;19.086;2022-12-04T16:40:02;101039.41;;;7.16;73.79
75759;BME280;64371;47.566;19.086;2022-12-04T16:43:10;101041.06;;;7.22;73.88
75759;BME280;64371;47.566;19.086;2022-12-04T16:46:14;101043.38;;;7.19;73.95
75759;BME280;64371;47.566;19.086;2022-12-04T16:49:17;101032.38;;;7.22;73.66
75759;BME280;64371;47.566;19.086;2022-12-04T16:52:20;101039.69;;;7.20;73.32
75759;BME280;64371;47.566;19.086;2022-12-04T16:55:30;101044.88;;;7.15;73.73
75759;BME280;64371;47.566;19.086;2022-12-04T16:58:33;101048.44;;;7.25;73.49
75759;BME280;64371;47.566;19.086;2022-12-04T17:01:40;101044.94;;;7.20;73.31
75759;BME280;64371;47.566;19.086;2022-12-04T17:04:43;101035.50;;;7.19;73.77
75759;BME280;64371;47.566;19.086;2022-12-04T17:07:46;101040.84;;;7.24;73.45
75759;BME280;64371;47.566;19.086;2022-12-04T17:10:49;101040.81;;;7.41;72.68
75759;BME280;64371;47.566;19.086;2022-12-04T17:13:52;101042.38;;;7.42;71.87
75759;BME280;64371;47.566;19.086;2022-12-04T17:16:54;101033.59;;;7.31;71.93
75759;BME280;64371;47.566;19.086;2022-12-04T17:19:57;101039.38;;;7.33;72.60
75759;BME280;64371;47.566;19.086;2022-12-04T17:22:59;101047.69;;;7.47;72.08
75759;BME280;64371;47.566;19.086;2022-12-04T17:26:11;101044.72;;;7.38;72.09
75759;BME280;64371;47.566;19.086;2022-12-04T17:29:13;101049.00;;;7.27;72.38
75759;BME280;64371;47.566;19.086;2022-12-04T17:32:16;101057.28;;;7.36;72.14
75759;BME280;64371;47.566;19.086;2022-12-04T17:35:18;101045.81;;;7.25;72.68
75759;BME280;64371;47.566;19.086;2022-12-04T17:38:21;101061.56;;;7.25;72.59
75759;BME280;64371;47.566;19.086;2022-12-04T17:41:23;101061.72;;;7.19;72.68
75759;BME280;64371;47.566;19.086;2022-12-04T17:44:26;101057.91;;;7.10;73.32
75759;BME280;64371;47.566;19.086;2022-12-04T17:47:28;101058.22;;;7.13;74.15
75759;BME280;64371;47.566;19.086;2022-12-04T17:50:31;101058.94;;;7.09;73.73
75759;BME280;64371;47.566;19.086;2022-12-04T17:53:33;101063.31;;;7.03;74.53
75759;BME280;64371;47.566;19.086;2022-12-04T17:56:36;101059.31;;;7.01;74.98
75759;BME280;64371;47.566;19.086;2022-12-04T17:59:39;101047.91;;;6.90;74.89